Time;durP1;ratioP1;P1;durP2;ratioP2;P2;SDS_P1;SDS_P2;PMS_P1;PMS_P2;Temp;Humidity;BMP_temperature;BMP_pressure;BME280_temperature;BME280_humidity;BME280_pressure;Samples;Min_cycle;Max_cycle;Signal;HPM_P1;HPM_P2
2022/06/22 00:01:54;;;;;;;8.77;3.63;;;17.30;1.00;;;;;;5052274;28;20991;-75
2022/06/22 00:04:25;;;;;;;9.57;4.03;;;17.40;1.00;;;;;;5048670;28;20479;-76
2022/06/22 00:06:56;;;;;;;9.43;3.60;;;17.40;1.00;;;;;;5048049;28;20469;-74
2022/06/22 00:09:27;;;;;;;7.53;2.73;;;17.40;1.00;;;;;;5055371;28;20519;-74
2022/06/22 00:11:54;;;;;;;8.97;2.93;;;17.30;1.00;;;;;;5053626;28;20475;-76
2022/06/22 00:14:26;;;;;;;7.90;2.97;;;17.30;1.00;;;;;;5054243;28;20957;-74
2022/06/22 00:16:55;;;;;;;9.73;3.97;;;17.30;1.00;;;;;;5041751;28;20843;-74
2022/06/22 00:19:29;;;;;;;7.07;2.63;;;17.30;1.00;;;;;;5049982;28;20479;-75
2022/06/22 00:21:57;;;;;;;8.87;3.13;;;17.30;1.00;;;;;;5046810;28;20479;-75
2022/06/22 00:24:55;;;;;;;7.80;3.40;;;17.20;1.00;;;;;;5061719;28;20932;-74
2022/06/22 00:27:29;;;;;;;8.70;3.10;;;17.20;1.00;;;;;;5036096;28;20544;-75
2022/06/22 00:30:16;;;;;;;8.00;3.50;;;17.20;1.00;;;;;;5044148;28;20463;-76
2022/06/22 00:32:55;;;;;;;7.30;2.90;;;17.20;1.00;;;;;;5050362;28;20474;-74
2022/06/22 00:35:42;;;;;;;6.87;2.30;;;17.20;1.00;;;;;;5047735;28;20454;-74
2022/06/22 00:38:15;;;;;;;11.10;3.50;;;17.10;1.00;;;;;;5058977;28;20478;-74
2022/06/22 00:40:42;;;;;;;8.10;2.37;;;17.10;1.00;;;;;;5052566;28;20945;-74
2022/06/22 00:43:14;;;;;;;8.57;2.80;;;17.10;1.00;;;;;;5052485;28;20936;-74
2022/06/22 00:45:42;;;;;;;7.77;3.13;;;17.10;1.00;;;;;;5056486;28;20455;-75
2022/06/22 00:48:22;;;;;;;7.83;2.93;;;17.10;1.00;;;;;;5060592;28;20488;-74
2022/06/22 00:50:57;;;;;;;6.90;3.00;;;17.00;1.00;;;;;;5055380;28;20556;-74
2022/06/22 00:53:31;;;;;;;8.93;2.90;;;17.00;1.00;;;;;;5060093;28;20454;-76
2022/06/22 00:56:05;;;;;;;8.37;2.77;;;17.00;1.00;;;;;;5053206;28;20461;-74
2022/06/22 00:58:40;;;;;;;10.27;3.47;;;17.00;1.00;;;;;;5052834;28;21288;-74
2022/06/22 01:01:14;;;;;;;7.63;3.10;;;16.90;1.00;;;;;;5053595;28;20470;-75
2022/06/22 01:03:55;;;;;;;6.70;3.00;;;16.90;1.00;;;;;;5055908;28;20467;-74
2022/06/22 01:06:32;;;;;;;6.60;2.40;;;16.90;1.00;;;;;;5053368;28;20463;-75
2022/06/22 01:09:03;;;;;;;6.83;2.50;;;16.80;1.00;;;;;;5050668;28;20566;-74
2022/06/22 01:14:29;;;;;;;6.67;2.50;;;16.80;1.00;;;;;;5038677;28;20516;-74
2022/06/22 01:16:59;;;;;;;8.37;2.30;;;16.70;1.00;;;;;;5046980;28;20460;-75
2022/06/22 01:19:40;;;;;;;6.47;2.33;;;16.70;1.00;;;;;;5050077;28;21021;-75
2022/06/22 01:22:21;;;;;;;9.90;2.70;;;16.60;1.00;;;;;;5050339;28;20471;-75
2022/06/22 01:24:56;;;;;;;7.63;2.03;;;16.50;1.00;;;;;;5045059;28;21266;-73
2022/06/22 01:27:31;;;;;;;7.30;2.57;;;16.40;1.00;;;;;;5048866;28;20462;-76
2022/06/22 01:30:03;;;;;;;6.57;2.30;;;16.40;1.00;;;;;;5059908;28;20462;-76
2022/06/22 01:32:32;;;;;;;8.20;2.20;;;16.30;1.00;;;;;;5052996;28;20527;-76
2022/06/22 01:35:02;;;;;;;5.90;1.90;;;16.20;1.00;;;;;;5053289;28;20474;-76
2022/06/22 01:37:31;;;;;;;8.43;2.73;;;16.20;1.00;;;;;;5057424;28;20920;-76
2022/06/22 01:40:06;;;;;;;6.30;2.20;;;16.10;1.00;;;;;;5047351;28;20472;-76
2022/06/22 01:42:40;;;;;;;6.63;2.20;;;16.10;1.00;;;;;;5042624;28;20596;-74
2022/06/22 01:45:18;;;;;;;7.40;2.57;;;16.10;1.00;;;;;;5050496;28;20475;-74
2022/06/22 01:47:50;;;;;;;7.20;2.27;;;16.10;1.00;;;;;;5047482;28;20460;-75
2022/06/22 01:50:22;;;;;;;6.30;1.90;;;16.00;1.00;;;;;;5046826;28;20590;-73
2022/06/22 01:52:58;;;;;;;6.70;2.23;;;16.00;1.00;;;;;;5051521;28;24420;-75
2022/06/22 01:55:47;;;;;;;7.40;2.67;;;15.90;1.00;;;;;;5049154;28;20457;-74
2022/06/22 01:58:39;;;;;;;7.30;2.90;;;15.90;1.00;;;;;;5048491;28;22629;-75
2022/06/22 02:01:14;;;;;;;6.20;2.07;;;15.80;1.00;;;;;;5050135;28;20452;-76
2022/06/22 02:03:48;;;;;;;6.23;2.33;;;15.70;1.00;;;;;;5055555;28;20931;-76
2022/06/22 02:09:09;;;;;;;6.67;2.50;;;15.70;1.00;;;;;;5051532;28;20587;-76
2022/06/22 02:11:42;;;;;;;8.53;3.80;;;15.60;1.00;;;;;;5045429;28;20464;-77
2022/06/22 02:14:17;;;;;;;6.70;2.80;;;15.60;1.00;;;;;;5048569;28;20471;-75
2022/06/22 02:16:48;;;;;;;7.20;2.73;;;15.60;1.00;;;;;;5057766;28;20478;-74
2022/06/22 02:19:17;;;;;;;10.80;3.27;;;15.60;1.00;;;;;;5048400;28;21989;-75
2022/06/22 02:21:45;;;;;;;7.90;2.90;;;15.50;1.00;;;;;;5050530;28;20457;-75
2022/06/22 02:24:17;;;;;;;7.90;3.07;;;15.50;1.00;;;;;;5048228;28;20892;-74
2022/06/22 02:26:48;;;;;;;7.50;2.80;;;15.50;1.00;;;;;;5049016;28;20491;-75
2022/06/22 02:29:20;;;;;;;8.60;3.50;;;15.50;1.00;;;;;;5049207;28;21024;-74
2022/06/22 02:31:47;;;;;;;8.00;3.10;;;15.40;1.00;;;;;;5048475;28;20668;-73
2022/06/22 02:34:15;;;;;;;8.50;3.30;;;15.40;1.00;;;;;;5060773;28;20471;-74
2022/06/22 02:36:45;;;;;;;7.10;2.70;;;15.40;1.00;;;;;;5048578;28;20468;-75
2022/06/22 02:39:14;;;;;;;9.80;4.40;;;15.30;1.00;;;;;;5051516;28;21059;-75
2022/06/22 02:44:31;;;;;;;7.23;3.83;;;15.30;1.00;;;;;;5064624;28;20464;-75
2022/06/22 02:47:01;;;;;;;8.07;3.33;;;15.20;1.00;;;;;;5064356;28;20462;-75
2022/06/22 02:49:33;;;;;;;9.67;3.50;;;15.20;1.00;;;;;;5043057;28;20432;-74
2022/06/22 02:52:03;;;;;;;7.70;2.90;;;15.20;1.00;;;;;;5057761;28;20459;-75
2022/06/22 02:54:33;;;;;;;8.07;3.70;;;15.10;1.00;;;;;;5060159;28;20556;-74
2022/06/22 02:57:07;;;;;;;10.00;4.03;;;15.10;1.00;;;;;;5048512;28;20479;-75
2022/06/22 02:59:35;;;;;;;8.33;3.50;;;15.10;1.00;;;;;;5041784;28;20452;-75
2022/06/22 03:02:04;;;;;;;9.23;3.70;;;15.10;1.00;;;;;;5061984;28;20490;-75
2022/06/22 03:04:32;;;;;;;8.10;3.30;;;15.00;1.00;;;;;;5049611;28;20548;-74
2022/06/22 03:07:00;;;;;;;8.47;3.67;;;15.00;1.00;;;;;;5055845;28;20471;-74
2022/06/22 03:09:29;;;;;;;9.30;3.53;;;15.00;1.00;;;;;;5063721;28;20572;-75
2022/06/22 03:11:59;;;;;;;8.70;3.30;;;15.00;1.00;;;;;;5055399;28;20468;-75
2022/06/22 03:14:30;;;;;;;7.17;3.33;;;15.00;1.00;;;;;;5049651;28;20959;-75
2022/06/22 03:17:02;;;;;;;7.53;3.67;;;14.90;1.00;;;;;;5055906;28;20521;-75
2022/06/22 03:19:38;;;;;;;8.70;4.53;;;14.90;1.00;;;;;;5066056;28;20462;-75
2022/06/22 03:22:05;;;;;;;9.10;3.60;;;14.90;1.00;;;;;;5052932;28;20564;-76
2022/06/22 03:24:41;;;;;;;7.30;3.40;;;14.90;1.00;;;;;;5039262;28;20461;-74
2022/06/22 03:27:16;;;;;;;11.17;5.00;;;14.80;1.00;;;;;;5054028;28;20472;-75
2022/06/22 03:29:48;;;;;;;10.63;4.50;;;14.80;1.00;;;;;;5060248;28;20460;-76
2022/06/22 03:32:22;;;;;;;7.80;3.50;;;14.80;1.00;;;;;;5054868;28;20472;-74
2022/06/22 03:34:52;;;;;;;9.63;4.40;;;14.80;1.00;;;;;;5050969;28;20473;-74
2022/06/22 03:37:25;;;;;;;8.27;3.67;;;14.90;1.00;;;;;;5055197;28;20864;-74
2022/06/22 03:39:57;;;;;;;11.33;5.03;;;14.90;1.00;;;;;;5054563;28;21022;-75
2022/06/22 03:42:28;;;;;;;9.67;3.80;;;14.90;1.00;;;;;;5044536;28;21390;-76
2022/06/22 03:44:57;;;;;;;8.20;4.13;;;14.90;1.00;;;;;;5052447;28;20461;-75
2022/06/22 03:47:32;;;;;;;12.20;4.53;;;14.90;1.00;;;;;;5055683;28;20455;-74
2022/06/22 03:50:05;;;;;;;9.03;4.13;;;15.00;1.00;;;;;;5056906;28;20459;-74
2022/06/22 03:52:39;;;;;;;8.87;4.37;;;15.00;1.00;;;;;;5053210;28;20456;-75
2022/06/22 03:55:11;;;;;;;9.60;4.37;;;15.00;1.00;;;;;;5054167;28;20554;-76
2022/06/22 03:57:43;;;;;;;9.03;4.37;;;15.00;1.00;;;;;;5053262;28;20471;-75
2022/06/22 04:00:11;;;;;;;10.30;4.00;;;15.00;1.00;;;;;;5042906;28;20932;-74
2022/06/22 04:02:42;;;;;;;9.83;3.87;;;15.00;1.00;;;;;;5059492;28;20455;-75
2022/06/22 04:05:16;;;;;;;8.97;3.87;;;15.00;1.00;;;;;;5048128;28;20467;-75
2022/06/22 04:07:43;;;;;;;8.20;4.10;;;15.10;1.00;;;;;;5052812;28;21066;-75
2022/06/22 04:10:25;;;;;;;9.70;4.20;;;15.10;1.00;;;;;;5041353;28;20546;-75
2022/06/22 04:12:54;;;;;;;8.10;4.00;;;15.10;1.00;;;;;;5039970;28;20472;-75
2022/06/22 04:15:31;;;;;;;9.90;4.47;;;15.00;1.00;;;;;;5052062;28;20461;-76
2022/06/22 04:18:03;;;;;;;9.43;4.57;;;15.10;1.00;;;;;;5046613;28;20562;-75
2022/06/22 04:20:51;;;;;;;10.30;4.60;;;15.10;1.00;;;;;;5042495;28;21270;-73
2022/06/22 04:23:24;;;;;;;10.33;5.10;;;15.20;1.00;;;;;;5051917;28;20510;-75
2022/06/22 04:25:53;;;;;;;11.90;4.63;;;15.20;1.00;;;;;;5058606;28;20485;-75
2022/06/22 04:28:21;;;;;;;7.57;4.23;;;15.20;1.00;;;;;;5053529;28;20463;-75
2022/06/22 04:30:51;;;;;;;10.10;4.37;;;15.30;1.00;;;;;;5063399;28;20491;-76
2022/06/22 04:33:25;;;;;;;9.87;3.90;;;15.30;1.00;;;;;;5061659;28;20463;-75
2022/06/22 04:35:57;;;;;;;12.67;10.83;;;15.40;1.00;;;;;;5055435;28;20502;-76
2022/06/22 04:38:31;;;;;;;10.47;4.60;;;15.40;1.00;;;;;;5062229;28;20460;-75
2022/06/22 04:41:04;;;;;;;8.30;4.77;;;15.50;1.00;;;;;;5065987;28;20459;-75
2022/06/22 04:43:31;;;;;;;8.13;4.00;;;15.50;1.00;;;;;;5059804;28;20470;-74
2022/06/22 04:45:58;;;;;;;7.90;3.63;;;15.60;1.00;;;;;;5058067;28;20448;-74
2022/06/22 04:48:29;;;;;;;8.73;4.40;;;15.70;1.00;;;;;;5056704;28;20468;-74
2022/06/22 04:50:59;;;;;;;8.00;4.03;;;15.70;1.00;;;;;;5057515;28;20459;-75
2022/06/22 04:53:31;;;;;;;8.90;4.50;;;15.80;1.00;;;;;;5054983;28;20582;-75
2022/06/22 04:56:03;;;;;;;8.43;3.50;;;15.90;1.00;;;;;;5053988;28;20447;-74
2022/06/22 04:58:36;;;;;;;7.23;3.20;;;15.90;1.00;;;;;;5060473;28;20443;-73
2022/06/22 05:01:05;;;;;;;7.37;3.47;;;16.00;1.00;;;;;;5050868;28;20978;-74
2022/06/22 05:03:35;;;;;;;7.47;3.10;;;16.10;1.00;;;;;;5058575;28;20549;-75
2022/06/22 05:06:09;;;;;;;8.17;4.00;;;16.30;1.00;;;;;;5043157;28;20971;-75
2022/06/22 05:08:41;;;;;;;6.70;3.30;;;16.30;1.00;;;;;;5046897;28;20475;-76
2022/06/22 05:11:17;;;;;;;8.00;3.63;;;16.30;1.00;;;;;;5065341;28;20531;-75
2022/06/22 05:13:48;;;;;;;8.43;4.13;;;16.30;1.00;;;;;;5064251;28;20507;-75
2022/06/22 05:16:19;;;;;;;8.43;3.90;;;16.40;1.00;;;;;;5052152;28;20986;-74
2022/06/22 05:18:49;;;;;;;8.27;3.60;;;16.60;1.00;;;;;;5054684;28;20471;-74
2022/06/22 05:21:20;;;;;;;10.03;4.17;;;16.70;1.00;;;;;;5062532;28;20514;-75
2022/06/22 05:23:51;;;;;;;8.83;3.87;;;16.80;1.00;;;;;;5057752;28;20495;-75
2022/06/22 05:26:23;;;;;;;9.03;3.33;;;16.90;1.00;;;;;;5049166;28;21323;-74
2022/06/22 05:28:56;;;;;;;8.10;4.10;;;16.90;1.00;;;;;;5036230;28;20472;-75
2022/06/22 05:31:31;;;;;;;8.20;3.90;;;17.00;1.00;;;;;;5041957;28;20588;-74
2022/06/22 05:34:03;;;;;;;11.87;6.20;;;17.10;1.00;;;;;;5063526;28;20463;-75
2022/06/22 05:36:35;;;;;;;8.90;3.97;;;17.20;1.00;;;;;;5053860;28;20824;-75
2022/06/22 05:39:02;;;;;;;10.47;4.13;;;17.30;1.00;;;;;;5065743;28;20494;-77
2022/06/22 05:41:38;;;;;;;10.93;4.20;;;17.50;1.00;;;;;;5017698;28;20530;-77
2022/06/22 05:44:22;;;;;;;9.77;4.47;;;17.60;1.00;;;;;;5066593;28;20529;-83
2022/06/22 05:46:54;;;;;;;12.43;4.37;;;17.80;1.00;;;;;;5052233;28;20603;-81
2022/06/22 05:49:29;;;;;;;9.73;4.50;;;18.00;1.00;;;;;;5054266;28;20975;-81
2022/06/22 05:51:59;;;;;;;9.07;4.60;;;18.10;1.00;;;;;;5052516;28;20928;-81
2022/06/22 05:54:32;;;;;;;10.07;4.60;;;18.30;1.00;;;;;;5061603;28;20535;-81
2022/06/22 05:57:11;;;;;;;11.20;5.23;;;18.50;1.00;;;;;;5066471;28;20477;-81
2022/06/22 05:59:48;;;;;;;9.27;4.27;;;18.60;1.00;;;;;;5065874;28;20470;-81
2022/06/22 06:02:26;;;;;;;11.10;4.80;;;18.80;1.00;;;;;;5048126;28;21101;-81
2022/06/22 06:05:03;;;;;;;8.80;4.53;;;19.00;1.00;;;;;;5057605;28;20491;-81
2022/06/22 06:07:34;;;;;;;9.47;4.00;;;19.20;1.00;;;;;;5062578;27;20507;-84
2022/06/22 06:10:04;;;;;;;11.60;5.20;;;19.30;1.00;;;;;;5059046;28;20476;-78
2022/06/22 06:12:36;;;;;;;8.60;4.20;;;19.40;1.00;;;;;;5030576;28;20476;-77
2022/06/22 06:15:04;;;;;;;8.67;3.93;;;19.60;1.00;;;;;;5048851;28;20455;-75
2022/06/22 06:17:39;;;;;;;10.87;4.40;;;19.70;1.00;;;;;;5064358;28;20901;-77
2022/06/22 06:20:19;;;;;;;7.90;4.03;;;19.80;1.00;;;;;;5046675;28;20482;-76
2022/06/22 06:22:49;;;;;;;12.50;6.77;;;20.00;1.00;;;;;;5043079;28;21042;-76
2022/06/22 06:28:14;;;;;;;10.07;4.57;;;20.30;1.00;;;;;;5044359;28;20464;-77
2022/06/22 06:30:45;;;;;;;10.70;4.70;;;20.40;1.00;;;;;;5046027;28;20855;-77
2022/06/22 06:33:20;;;;;;;11.70;5.03;;;20.60;1.00;;;;;;5049084;28;20495;-77
2022/06/22 06:35:50;;;;;;;9.63;4.53;;;20.70;1.00;;;;;;5055433;28;20966;-78
2022/06/22 06:38:24;;;;;;;10.80;4.70;;;20.80;1.00;;;;;;5052115;28;20908;-76
2022/06/22 06:41:01;;;;;;;9.73;4.30;;;20.90;1.00;;;;;;5048057;28;21010;-77
2022/06/22 06:43:39;;;;;;;10.27;4.80;;;21.00;1.00;;;;;;5041350;28;20845;-79
2022/06/22 06:46:14;;;;;;;9.27;3.93;;;21.10;1.00;;;;;;5052865;28;20470;-78
2022/06/22 06:48:44;;;;;;;10.73;4.80;;;21.10;1.00;;;;;;5057962;28;20550;-80
2022/06/22 06:51:16;;;;;;;10.00;4.67;;;21.20;1.00;;;;;;5064649;28;20990;-80
2022/06/22 06:53:47;;;;;;;10.80;4.20;;;21.30;1.00;;;;;;5049346;28;20463;-81
2022/06/22 06:56:22;;;;;;;10.43;4.47;;;21.40;1.00;;;;;;5053478;28;20488;-78
2022/06/22 06:58:52;;;;;;;8.03;3.63;;;21.60;1.00;;;;;;5054730;28;20463;-79
2022/06/22 07:01:21;;;;;;;8.90;4.03;;;21.70;1.00;;;;;;5052052;28;21211;-77
2022/06/22 07:03:57;;;;;;;10.10;4.60;;;21.80;1.00;;;;;;5045492;28;20443;-77
2022/06/22 07:06:25;;;;;;;9.17;3.23;;;21.90;1.00;;;;;;5060578;28;20482;-77
2022/06/22 07:08:59;;;;;;;10.50;3.30;;;21.90;1.00;;;;;;5063176;28;20490;-76
2022/06/22 07:11:32;;;;;;;10.20;3.63;;;22.00;1.00;;;;;;5044475;28;21006;-76
2022/06/22 07:14:14;;;;;;;6.70;2.80;;;22.10;1.00;;;;;;5053995;28;20462;-77
2022/06/22 07:16:44;;;;;;;11.10;3.10;;;22.20;1.00;;;;;;5052936;28;20974;-77
2022/06/22 07:19:22;;;;;;;9.50;2.60;;;22.40;1.00;;;;;;5046177;28;20464;-78
2022/06/22 07:22:01;;;;;;;8.80;2.60;;;22.40;1.00;;;;;;5050963;28;20571;-77
2022/06/22 07:24:34;;;;;;;9.43;2.60;;;22.60;1.00;;;;;;5044820;28;20496;-78
2022/06/22 07:27:11;;;;;;;7.70;2.90;;;22.70;1.00;;;;;;5051559;28;20893;-77
2022/06/22 07:29:49;;;;;;;8.13;3.33;;;22.80;1.00;;;;;;5049548;28;21192;-78
2022/06/22 07:32:27;;;;;;;7.63;2.70;;;22.80;1.00;;;;;;5043416;28;20567;-77
2022/06/22 07:35:03;;;;;;;7.53;2.77;;;22.80;1.00;;;;;;5061199;28;20499;-77
2022/06/22 07:37:38;;;;;;;10.00;3.37;;;22.80;1.00;;;;;;5064534;28;20456;-77
2022/06/22 07:40:13;;;;;;;8.07;2.90;;;22.90;1.00;;;;;;5065985;28;20487;-78
2022/06/22 07:42:49;;;;;;;8.60;3.43;;;22.90;1.00;;;;;;5068774;28;20622;-76
2022/06/22 07:45:19;;;;;;;8.77;2.70;;;23.00;1.00;;;;;;5064398;28;20458;-77
2022/06/22 07:47:54;;;;;;;8.90;3.30;;;22.90;1.00;;;;;;5069068;28;20467;-76
2022/06/22 07:50:32;;;;;;;10.43;2.80;;;23.10;1.00;;;;;;5063005;28;20941;-79
2022/06/22 07:53:18;;;;;;;9.13;3.57;;;23.30;1.00;;;;;;5063740;28;20491;-78
2022/06/22 07:55:52;;;;;;;10.70;3.17;;;23.60;1.00;;;;;;5061576;28;21791;-76
2022/06/22 07:58:28;;;;;;;12.27;3.13;;;23.60;1.00;;;;;;5051104;28;20477;-79
2022/06/22 08:01:01;;;;;;;7.90;2.60;;;23.80;1.00;;;;;;5049375;28;20950;-79
2022/06/22 08:03:37;;;;;;;6.20;2.50;;;23.90;1.00;;;;;;5041579;28;20461;-77
2022/06/22 08:06:09;;;;;;;7.73;3.03;;;24.00;1.00;;;;;;5041404;28;20448;-78
2022/06/22 08:08:43;;;;;;;8.73;2.70;;;24.00;1.00;;;;;;5059469;28;20950;-77
2022/06/22 08:11:18;;;;;;;13.90;8.23;;;23.90;1.00;;;;;;5061683;28;20585;-77
2022/06/22 08:13:51;;;;;;;6.60;2.57;;;24.00;1.00;;;;;;5052252;28;20468;-79
2022/06/22 08:16:36;;;;;;;7.47;2.93;;;24.00;1.00;;;;;;5077037;28;20443;-78
2022/06/22 08:19:06;;;;;;;8.97;3.53;;;24.20;1.00;;;;;;5052683;28;20512;-80
2022/06/22 08:21:47;;;;;;;;;;;;;;;;;;;;;
2022/06/22 08:24:28;;;;;;;7.97;2.60;;;24.30;1.00;;;;;;5067084;28;41584;-79
2022/06/22 08:27:02;;;;;;;7.33;2.87;;;24.50;1.00;;;;;;5069372;28;20474;-80
2022/06/22 08:29:37;;;;;;;6.30;2.23;;;24.60;1.00;;;;;;5066454;28;20990;-78
2022/06/22 08:32:10;;;;;;;5.73;2.30;;;24.70;1.00;;;;;;5072704;28;20465;-83
2022/06/22 08:34:45;;;;;;;7.57;2.80;;;24.80;1.00;;;;;;5064768;28;20546;-80
2022/06/22 08:37:27;;;;;;;9.77;3.03;;;24.80;1.00;;;;;;5069129;28;20467;-83
2022/06/22 08:40:16;;;;;;;6.67;2.53;;;24.80;1.00;;;;;;5053744;28;20835;-80
2022/06/22 08:43:08;;;;;;;9.53;3.00;;;24.90;1.00;;;;;;5062194;28;20458;-80
2022/06/22 08:46:07;;;;;;;6.73;2.47;;;25.10;1.00;;;;;;5058550;28;20484;-81
2022/06/22 08:49:05;;;;;;;7.20;2.47;;;25.20;1.00;;;;;;5068732;28;20983;-80
2022/06/22 08:51:47;;;;;;;9.03;4.57;;;25.30;1.00;;;;;;5061454;28;20904;-79
2022/06/22 08:54:39;;;;;;;7.13;2.67;;;25.40;1.00;;;;;;5070413;28;20404;-80
2022/06/22 08:57:23;;;;;;;6.70;2.20;;;25.60;1.00;;;;;;5052521;28;20553;-80
2022/06/22 09:00:16;;;;;;;6.97;2.20;;;25.70;1.00;;;;;;5043430;28;20463;-79
2022/06/22 09:03:21;;;;;;;6.93;2.80;;;25.80;1.00;;;;;;5061470;28;20462;-78
2022/06/22 09:06:06;;;;;;;9.27;2.70;;;25.80;1.00;;;;;;5053554;28;20460;-79
2022/06/22 09:09:03;;;;;;;5.90;2.57;;;25.80;1.00;;;;;;5068618;28;20550;-79
2022/06/22 09:11:33;;;;;;;6.70;2.57;;;26.00;1.00;;;;;;5047925;28;20452;-79
2022/06/22 09:14:29;;;;;;;7.23;2.90;;;26.20;1.00;;;;;;5046988;28;20464;-78
2022/06/22 09:17:21;;;;;;;7.13;2.10;;;26.40;1.00;;;;;;5046248;28;24359;-79
2022/06/22 09:20:09;;;;;;;7.10;2.70;;;26.40;1.00;;;;;;5057680;28;20467;-79
2022/06/22 09:22:54;;;;;;;7.00;2.93;;;26.50;1.00;;;;;;5063651;28;20549;-78
2022/06/22 09:25:47;;;;;;;5.70;2.20;;;26.50;1.00;;;;;;5042161;28;20556;-81
2022/06/22 09:28:39;;;;;;;8.13;2.80;;;26.50;1.00;;;;;;5062040;28;20515;-78
2022/06/22 09:31:41;;;;;;;7.90;3.03;;;26.50;1.00;;;;;;5053987;28;20523;-80
2022/06/22 09:34:25;;;;;;;5.23;2.17;;;26.60;1.00;;;;;;5050259;28;20471;-80
2022/06/22 09:37:15;;;;;;;6.63;2.33;;;26.40;1.00;;;;;;5063738;28;20468;-79
2022/06/22 09:40:09;;;;;;;5.90;1.90;;;26.50;1.00;;;;;;5064722;28;20493;-78
2022/06/22 09:43:02;;;;;;;6.47;2.33;;;26.90;1.00;;;;;;5067295;28;20459;-80
2022/06/22 09:45:44;;;;;;;6.50;3.33;;;28.70;1.00;;;;;;5061200;28;20531;-78
2022/06/22 09:48:48;;;;;;;7.93;2.53;;;30.60;1.00;;;;;;5070143;28;20468;-76
2022/06/22 09:51:34;;;;;;;5.70;2.20;;;32.20;1.00;;;;;;5065827;28;20484;-79
2022/06/22 09:57:32;;;;;;;6.60;2.97;;;34.50;1.00;;;;;;5054961;28;20450;-79
2022/06/22 10:00:08;;;;;;;4.70;2.40;;;34.20;1.00;;;;;;5052628;28;20531;-79
2022/06/22 10:03:07;;;;;;;5.03;2.13;;;34.80;1.00;;;;;;5066896;28;20447;-78
2022/06/22 10:05:58;;;;;;;5.23;1.67;;;35.80;1.00;;;;;;5059580;28;20433;-77
2022/06/22 10:08:46;;;;;;;3.80;1.60;;;36.50;1.00;;;;;;5058923;28;21128;-77
2022/06/22 10:11:27;;;;;;;4.10;1.87;;;36.60;1.00;;;;;;5053796;28;20463;-81
2022/06/22 10:14:25;;;;;;;3.67;1.70;;;37.20;1.00;;;;;;5051577;28;20444;-77
2022/06/22 10:17:06;;;;;;;3.33;1.80;;;37.70;1.00;;;;;;5052264;28;20492;-78
2022/06/22 10:19:53;;;;;;;8.00;6.27;;;38.10;1.00;;;;;;5062137;28;20494;-78
2022/06/22 10:22:49;;;;;;;5.70;2.00;;;38.70;1.00;;;;;;5060812;28;20816;-77
2022/06/22 10:25:37;;;;;;;3.90;2.10;;;38.90;1.00;;;;;;5045994;28;20962;-78
2022/06/22 10:28:38;;;;;;;4.90;2.13;;;39.30;1.00;;;;;;5044958;28;20477;-79
2022/06/22 10:31:14;;;;;;;4.73;2.40;;;39.20;1.00;;;;;;5068488;28;20443;-78
2022/06/22 10:34:09;;;;;;;3.63;1.53;;;39.40;1.00;;;;;;5061700;28;20609;-79
2022/06/22 10:36:59;;;;;;;4.10;1.77;;;39.60;1.00;;;;;;5063552;28;20460;-78
2022/06/22 10:39:46;;;;;;;4.40;2.10;;;40.00;1.00;;;;;;5049826;28;20625;-77
2022/06/22 10:45:42;;;;;;;3.13;1.63;;;40.30;1.00;;;;;;5055954;28;20416;-78
2022/06/22 10:49:05;;;;;;;3.50;2.00;;;40.20;1.00;;;;;;5065259;28;20546;-78
2022/06/22 10:52:00;;;;;;;5.53;1.67;;;40.20;1.00;;;;;;5001264;28;21116;-78
2022/06/22 10:54:52;;;;;;;4.13;2.10;;;40.30;1.00;;;;;;5046141;28;20905;-77
2022/06/22 10:58:04;;;;;;;4.10;1.90;;;40.70;1.00;;;;;;5060736;28;20911;-78
2022/06/22 11:00:44;;;;;;;5.83;3.03;;;41.10;1.00;;;;;;5064544;28;20405;-78
2022/06/22 11:03:44;;;;;;;5.70;1.70;;;41.60;1.00;;;;;;5054619;28;20555;-79
2022/06/22 11:06:56;;;;;;;3.90;1.30;;;41.80;1.00;;;;;;5052903;28;20971;-78
2022/06/22 11:09:39;;;;;;;3.47;1.97;;;41.60;1.00;;;;;;5056087;28;20529;-78
2022/06/22 11:12:25;;;;;;;4.70;2.03;;;41.50;1.00;;;;;;5063047;28;20499;-77
2022/06/22 11:15:25;;;;;;;3.50;1.93;;;42.00;1.00;;;;;;5058494;28;20510;-77
2022/06/22 11:18:29;;;;;;;3.30;1.43;;;42.00;1.00;;;;;;5043282;28;20468;-80
2022/06/22 11:21:07;;;;;;;3.73;1.73;;;41.50;1.00;;;;;;5068829;28;20446;-77
2022/06/22 11:23:58;;;;;;;4.50;2.00;;;41.70;1.00;;;;;;5046103;28;20431;-78
2022/06/22 11:32:53;;;;;;;3.80;1.70;;;42.50;1.00;;;;;;5065749;28;20456;-78
2022/06/22 11:35:56;;;;;;;2.77;1.60;;;42.80;1.00;;;;;;5048240;28;20505;-78
2022/06/22 11:38:54;;;;;;;4.53;2.43;;;43.30;1.00;;;;;;5045288;28;20457;-80
2022/06/22 11:41:43;;;;;;;3.93;2.00;;;43.50;1.00;;;;;;5051954;28;20548;-79
2022/06/22 11:44:32;;;;;;;4.40;2.67;;;43.90;1.00;;;;;;5044689;28;20487;-78
2022/06/22 11:47:09;;;;;;;4.30;1.50;;;43.90;1.00;;;;;;5051551;28;20439;-76
2022/06/22 11:50:07;;;;;;;3.97;2.03;;;44.00;1.00;;;;;;5060825;28;20609;-79
2022/06/22 11:53:03;;;;;;;5.13;2.90;;;43.70;1.00;;;;;;5062817;28;20460;-77
2022/06/22 11:55:37;;;;;;;4.30;2.03;;;43.20;1.00;;;;;;5066997;28;20459;-78
2022/06/22 11:58:26;;;;;;;5.37;2.63;;;43.40;1.00;;;;;;5055591;28;20467;-79
2022/06/22 12:01:14;;;;;;;4.67;2.20;;;43.60;1.00;;;;;;5062089;28;20551;-79
2022/06/22 12:04:09;;;;;;;3.87;2.00;;;44.00;1.00;;;;;;5058316;28;20456;-78
2022/06/22 12:07:04;;;;;;;3.50;1.90;;;44.60;1.00;;;;;;5067424;28;20935;-79
2022/06/22 12:09:47;;;;;;;3.20;1.50;;;44.30;1.00;;;;;;5066978;28;20429;-78
2022/06/22 12:12:43;;;;;;;3.97;1.90;;;44.00;1.00;;;;;;5066074;28;20475;-79
2022/06/22 12:15:24;;;;;;;3.70;2.10;;;44.10;1.00;;;;;;5048106;28;20485;-79
2022/06/22 12:18:03;;;;;;;3.53;1.87;;;44.50;1.00;;;;;;5072083;28;20610;-80
2022/06/22 12:20:51;;;;;;;2.80;1.60;;;44.80;1.00;;;;;;5062411;28;20459;-78
2022/06/22 12:23:37;;;;;;;3.97;1.70;;;44.80;1.00;;;;;;5054813;28;20448;-77
2022/06/22 12:26:25;;;;;;;3.80;1.80;;;44.90;1.00;;;;;;5059552;28;20653;-79
2022/06/22 12:29:19;;;;;;;4.60;1.73;;;45.20;1.00;;;;;;5053888;28;20595;-78
2022/06/22 12:31:52;;;;;;;3.07;1.30;;;45.20;1.00;;;;;;5073727;28;20463;-78
2022/06/22 12:34:29;;;;;;;3.40;1.83;;;44.80;1.00;;;;;;5046933;28;20516;-78
2022/06/22 12:36:59;;;;;;;5.60;1.57;;;44.70;1.00;;;;;;5050665;28;20470;-78
2022/06/22 12:39:34;;;;;;;4.00;1.70;;;44.50;1.00;;;;;;5050773;28;20471;-77
2022/06/22 12:42:22;;;;;;;3.20;1.30;;;44.50;1.00;;;;;;5053094;28;20455;-79
2022/06/22 12:45:20;;;;;;;2.10;1.20;;;44.60;1.00;;;;;;5065531;28;20500;-78
2022/06/22 12:48:20;;;;;;;3.60;1.60;;;44.40;1.00;;;;;;5057726;28;20549;-78
2022/06/22 12:51:03;;;;;;;3.37;1.77;;;44.00;1.00;;;;;;5049749;28;21027;-80
2022/06/22 12:53:39;;;;;;;4.57;2.10;;;43.70;1.00;;;;;;5051287;28;20506;-78
2022/06/22 12:56:18;;;;;;;2.50;1.50;;;44.10;1.00;;;;;;5057174;28;20479;-78
2022/06/22 12:58:52;;;;;;;4.20;1.77;;;44.40;1.00;;;;;;5060357;28;20462;-78
2022/06/22 13:01:20;;;;;;;4.87;1.83;;;44.70;1.00;;;;;;5049460;28;20492;-78
2022/06/22 13:03:51;;;;;;;5.53;3.00;;;44.50;1.00;;;;;;5064394;28;20474;-78
2022/06/22 13:06:22;;;;;;;3.60;1.70;;;44.30;1.00;;;;;;5052958;28;20499;-78
2022/06/22 13:08:49;;;;;;;3.33;2.27;;;44.40;1.00;;;;;;5064957;28;20455;-78
2022/06/22 13:11:20;;;;;;;4.00;1.87;;;44.50;1.00;;;;;;5070988;28;20476;-77
2022/06/22 13:14:00;;;;;;;3.43;1.80;;;44.70;1.00;;;;;;5068705;28;20903;-79
2022/06/22 13:16:30;;;;;;;3.33;1.60;;;45.00;1.00;;;;;;5070985;28;20468;-78
2022/06/22 13:19:07;;;;;;;4.10;2.07;;;44.90;1.00;;;;;;5070417;28;20812;-78
2022/06/22 13:21:39;;;;;;;4.50;2.03;;;44.70;1.00;;;;;;5067577;28;20471;-78
2022/06/22 13:24:18;;;;;;;4.87;2.60;;;44.80;1.00;;;;;;5058740;28;20483;-78
2022/06/22 13:26:57;;;;;;;3.23;1.50;;;44.90;1.00;;;;;;5061329;28;20529;-79
2022/06/22 13:29:34;;;;;;;3.10;1.30;;;44.70;1.00;;;;;;5068078;28;20427;-79
2022/06/22 13:32:05;;;;;;;4.30;1.73;;;44.30;1.00;;;;;;5062839;28;20460;-80
2022/06/22 13:34:39;;;;;;;3.17;1.43;;;44.50;1.00;;;;;;5055073;28;20511;-77
2022/06/22 13:37:23;;;;;;;3.73;1.50;;;44.70;1.00;;;;;;5059666;28;20541;-80
2022/06/22 13:40:00;;;;;;;4.03;2.00;;;45.10;1.00;;;;;;5058529;28;20448;-82
2022/06/22 13:42:55;;;;;;;2.93;1.50;;;45.30;1.00;;;;;;5049174;28;20448;-80
2022/06/22 13:45:49;;;;;;;4.70;1.60;;;45.30;1.00;;;;;;5061403;28;20451;-80
2022/06/22 13:48:23;;;;;;;4.23;2.77;;;45.30;1.00;;;;;;5048467;28;20491;-81
2022/06/22 13:51:29;;;;;;;3.70;2.20;;;44.70;1.00;;;;;;5066749;28;20452;-80
2022/06/22 13:54:33;;;;;;;2.60;1.77;;;44.90;1.00;;;;;;5032297;28;20430;-79
2022/06/22 13:57:10;;;;;;;2.87;1.80;;;45.30;1.00;;;;;;5035156;28;20975;-81
2022/06/22 13:59:48;;;;;;;3.90;2.20;;;45.60;1.00;;;;;;5064884;28;20535;-81
2022/06/22 14:02:58;;;;;;;5.10;2.47;;;46.00;1.00;;;;;;5070159;28;20935;-81
2022/06/22 14:05:33;;;;;;;4.07;2.27;;;45.80;1.00;;;;;;5068055;28;20550;-81
2022/06/22 14:08:19;;;;;;;3.33;2.13;;;45.90;1.00;;;;;;5066638;28;20482;-82
2022/06/22 14:10:59;;;;;;;3.33;2.00;;;45.90;1.00;;;;;;5061771;28;20463;-82
2022/06/22 14:13:40;;;;;;;2.70;1.30;;;45.30;1.00;;;;;;5057846;28;20429;-82
2022/06/22 14:16:21;;;;;;;3.30;1.70;;;45.00;1.00;;;;;;5048722;28;20461;-82
2022/06/22 14:18:59;;;;;;;5.50;2.10;;;44.20;1.00;;;;;;5068859;28;20454;-82
2022/06/22 14:21:41;;;;;;;3.80;2.23;;;44.10;1.00;;;;;;5058227;28;20492;-81